| time (UTC) | temp F | wind direction | speed MPH | gust MPH | rain 1hr in | rain 24hr in | rain mn in | humidity % | barometer mb |
| 20260502193623 | 61 | 57 | 1.0 | 5.0 | 0.00 | 0.31 | 0.06 | 63 | 1013.6 |
| 20260502193131 | 61 | 44 | 1.0 | 4.0 | 0.00 | 0.31 | 0.06 | 64 | 1013.7 |
| 20260502192610 | 61 | 19 | 1.0 | 3.0 | 0.00 | 0.31 | 0.06 | 64 | 1013.8 |
| 20260502192143 | 61 | 58 | 1.0 | 3.0 | 0.00 | 0.31 | 0.06 | 64 | 1013.9 |
| 20260502191611 | 61 | 75 | 0.0 | 3.0 | 0.00 | 0.31 | 0.06 | 64 | 1013.9 |
| 20260502191137 | 61 | 75 | 1.0 | 3.0 | 0.00 | 0.31 | 0.06 | 63 | 1013.8 |
| 20260502190621 | 61 | 75 | 1.0 | 3.0 | 0.00 | 0.31 | 0.06 | 63 | 1013.8 |
| 20260502190122 | 61 | 75 | 1.0 | 3.0 | 0.00 | 0.31 | 0.06 | 63 | 1013.8 |
| 20260502185610 | 61 | 75 | 0.0 | 2.0 | 0.00 | 0.31 | 0.06 | 63 | 1013.7 |
| 20260502185112 | 61 | 75 | 0.0 | 4.0 | 0.00 | 0.31 | 0.06 | 63 | 1013.8 |
| 20260502184617 | 61 | 75 | 2.0 | 4.0 | 0.00 | 0.31 | 0.06 | 63 | 1013.9 |
| 20260502184105 | 61 | 5 | 1.0 | 4.0 | 0.00 | 0.31 | 0.06 | 64 | 1013.8 |
| 20260502183613 | 61 | 11 | 1.0 | 4.0 | 0.00 | 0.31 | 0.06 | 65 | 1013.8 |
| 20260502183132 | 61 | 28 | 1.0 | 4.0 | 0.00 | 0.31 | 0.06 | 65 | 1013.8 |
| 20260502182620 | 61 | 13 | 2.0 | 4.0 | 0.00 | 0.31 | 0.06 | 67 | 1013.8 |
| 20260502182124 | 61 | 360 | 2.0 | 4.0 | 0.00 | 0.31 | 0.06 | 66 | 1013.8 |
| 20260502181611 | 61 | 28 | 2.0 | 5.0 | 0.00 | 0.31 | 0.06 | 66 | 1013.9 |
| 20260502181117 | 62 | 11 | 3.0 | 6.0 | 0.00 | 0.31 | 0.06 | 65 | 1013.9 |
| 20260502180605 | 62 | 13 | 3.0 | 6.0 | 0.00 | 0.31 | 0.06 | 65 | 1014.0 |
| 20260502180110 | 62 | 348 | 2.0 | 5.0 | 0.00 | 0.31 | 0.06 | 65 | 1014.0 |
| 20260502170107 | 66 | 32 | 5.0 | 10.0 | 0.00 | 0.31 | 0.06 | 56 | 1014.6 |
| 20260502164113 | 68 | 19 | 3.0 | 6.0 | 0.00 | 0.31 | 0.06 | 48 | 1015.0 |
| 20260502163623 | 68 | 320 | 3.0 | 5.0 | 0.00 | 0.31 | 0.06 | 48 | 1015.1 |
| 20260502163111 | 69 | 292 | 3.0 | 5.0 | 0.00 | 0.31 | 0.06 | 47 | 1015.2 |
| 20260502162634 | 69 | 324 | 2.0 | 4.0 | 0.00 | 0.31 | 0.06 | 46 | 1015.2 |
| 20260502162122 | 69 | 11 | 2.0 | 4.0 | 0.00 | 0.31 | 0.06 | 47 | 1015.3 |
| 20260502161610 | 69 | 304 | 2.0 | 4.0 | 0.00 | 0.31 | 0.06 | 46 | 1015.4 |
| 20260502161132 | 69 | 316 | 2.0 | 4.0 | 0.00 | 0.31 | 0.06 | 46 | 1015.5 |
| 20260502160636 | 68 | 319 | 2.0 | 6.0 | 0.00 | 0.31 | 0.06 | 48 | 1015.5 |
| 20260502160114 | 68 | 318 | 3.0 | 6.0 | 0.00 | 0.31 | 0.06 | 47 | 1015.7 |
| 20260502152123 | 68 | 336 | 2.0 | 7.0 | 0.00 | 0.31 | 0.06 | 48 | 1016.0 |
| 20260502151612 | 68 | 287 | 3.0 | 8.0 | 0.00 | 0.31 | 0.06 | 45 | 1016.0 |
| 20260502151136 | 68 | 271 | 4.0 | 9.0 | 0.00 | 0.31 | 0.06 | 48 | 1016.1 |
| 20260502150622 | 68 | 284 | 3.0 | 9.0 | 0.00 | 0.31 | 0.06 | 47 | 1016.1 |
| 20260502150104 | 68 | 313 | 5.0 | 9.0 | 0.00 | 0.31 | 0.06 | 48 | 1016.2 |
| 20260502140118 | 69 | 273 | 5.0 | 8.0 | 0.00 | 0.31 | 0.06 | 47 | 1016.8 |
| 20260502130606 | 69 | 171 | 4.0 | 12.0 | 0.00 | 0.31 | 0.06 | 44 | 1017.4 |
| 20260502130122 | 69 | 216 | 4.0 | 12.0 | 0.00 | 0.31 | 0.06 | 45 | 1017.4 |
| 20260502123620 | 67 | 225 | 6.0 | 11.0 | 0.00 | 0.31 | 0.06 | 46 | 1017.5 |
| 20260502123107 | 67 | 239 | 7.0 | 11.0 | 0.00 | 0.31 | 0.06 | 46 | 1017.6 |
| 20260502122615 | 67 | 172 | 6.0 | 12.0 | 0.00 | 0.31 | 0.06 | 48 | 1017.7 |
| 20260502122137 | 66 | 203 | 6.0 | 12.0 | 0.00 | 0.31 | 0.06 | 49 | 1017.7 |
| 20260502121606 | 66 | 253 | 8.0 | 15.0 | 0.00 | 0.31 | 0.06 | 49 | 1017.8 |
| 20260502121111 | 66 | 252 | 5.0 | 15.0 | 0.00 | 0.31 | 0.06 | 49 | 1017.9 |
| 20260502120639 | 67 | 207 | 8.0 | 14.0 | 0.00 | 0.31 | 0.06 | 48 | 1017.9 |
| 20260502120116 | 67 | 134 | 7.0 | 12.0 | 0.00 | 0.31 | 0.06 | 48 | 1017.9 |
| 20260502115618 | 67 | 202 | 6.0 | 14.0 | 0.00 | 0.31 | 0.06 | 49 | 1018.0 |
| 20260502115108 | 66 | 200 | 6.0 | 12.0 | 0.00 | 0.31 | 0.06 | 51 | 1018.0 |
| 20260502114615 | 67 | 275 | 7.0 | 12.0 | 0.00 | 0.31 | 0.06 | 52 | 1018.0 |
| 20260502114105 | 67 | 236 | 6.0 | 11.0 | 0.00 | 0.31 | 0.06 | 55 | 1018.1 |
| 20260502113613 | 66 | 191 | 4.0 | 11.0 | 0.00 | 0.31 | 0.06 | 58 | 1018.2 |
| 20260502113142 | 66 | 254 | 7.0 | 11.0 | 0.00 | 0.31 | 0.06 | 59 | 1018.1 |
| 20260502112610 | 66 | 241 | 7.0 | 10.0 | 0.00 | 0.31 | 0.06 | 61 | 1018.1 |
| 20260502112115 | 66 | 205 | 5.0 | 13.0 | 0.00 | 0.31 | 0.06 | 65 | 1018.1 |
| 20260502111603 | 66 | 222 | 7.0 | 13.0 | 0.00 | 0.31 | 0.06 | 67 | 1018.2 |
| 20260502111108 | 65 | 264 | 6.0 | 12.0 | 0.00 | 0.31 | 0.06 | 68 | 1018.3 |
| 20260502110615 | 65 | 219 | 7.0 | 12.0 | 0.00 | 0.31 | 0.06 | 68 | 1018.2 |
| 20260502110116 | 65 | 174 | 5.0 | 12.0 | 0.00 | 0.31 | 0.06 | 70 | 1018.3 |
| 20260502105604 | 65 | 170 | 9.0 | 12.0 | 0.00 | 0.31 | 0.06 | 71 | 1018.3 |
| 20260502105112 | 65 | 246 | 6.0 | 11.0 | 0.00 | 0.31 | 0.06 | 72 | 1018.3 |
| 20260502104615 | 65 | 228 | 6.0 | 15.0 | 0.00 | 0.31 | 0.06 | 74 | 1018.3 |
| 20260502104103 | 64 | 216 | 5.0 | 15.0 | 0.00 | 0.31 | 0.06 | 74 | 1018.3 |
| 20260502103631 | 64 | 232 | 8.0 | 14.0 | 0.00 | 0.31 | 0.06 | 75 | 1018.4 |
| 20260502103114 | 64 | 221 | 6.0 | 10.0 | 0.00 | 0.31 | 0.06 | 77 | 1018.4 |
| 20260502102602 | 64 | 277 | 5.0 | 14.0 | 0.00 | 0.31 | 0.06 | 79 | 1018.4 |
| 20260502102107 | 64 | 237 | 7.0 | 14.0 | 0.00 | 0.31 | 0.06 | 80 | 1018.4 |
| 20260502101615 | 64 | 240 | 7.0 | 12.0 | 0.00 | 0.31 | 0.06 | 81 | 1018.3 |
| 20260502101104 | 64 | 173 | 7.0 | 10.0 | 0.00 | 0.31 | 0.06 | 81 | 1018.3 |
| 20260502100609 | 63 | 107 | 6.0 | 10.0 | 0.00 | 0.31 | 0.06 | 82 | 1018.4 |
| 20260502100106 | 63 | 204 | 6.0 | 12.0 | 0.00 | 0.31 | 0.06 | 83 | 1018.5 |
| 20260502091110 | 61 | 149 | 7.0 | 11.0 | 0.00 | 0.31 | 0.06 | 89 | 1018.7 |
| 20260502090617 | 61 | 123 | 5.0 | 9.0 | 0.00 | 0.31 | 0.06 | 90 | 1018.6 |
| 20260502090119 | 61 | 146 | 4.0 | 10.0 | 0.00 | 0.31 | 0.06 | 89 | 1018.6 |
| 20260502080109 | 61 | 277 | 7.0 | 11.0 | 0.00 | 0.31 | 0.06 | 93 | 1018.3 |
| 20260502071134 | 59 | 160 | 3.0 | 4.0 | 0.12 | 0.31 | 0.06 | 92 | 1018.2 |
| 20260502070620 | 59 | 191 | 2.0 | 3.0 | 0.12 | 0.31 | 0.06 | 92 | 1018.3 |
| 20260502070117 | 59 | 191 | 0.0 | 2.0 | 0.16 | 0.31 | 0.06 | 91 | 1018.1 |
| 20260502065603 | 59 | 191 | 1.0 | 3.0 | 0.28 | 0.31 | 0.06 | 91 | 1018.1 |
| 20260502065110 | 59 | 191 | 0.0 | 2.0 | 0.28 | 0.31 | 0.06 | 91 | 1018.1 |
| 20260502064620 | 59 | 191 | 0.0 | 1.0 | 0.28 | 0.28 | 0.06 | 91 | 1018.0 |
| 20260502064108 | 59 | 191 | 0.0 | 0.0 | 0.28 | 0.28 | 0.06 | 90 | 1018.0 |
| 20260502063616 | 59 | 191 | 0.0 | 1.0 | 0.28 | 0.28 | 0.06 | 90 | 1018.0 |
| 20260502063120 | 59 | 191 | 0.0 | 1.0 | 0.28 | 0.28 | 0.06 | 89 | 1017.9 |
| 20260502062609 | 59 | 191 | 0.0 | 1.0 | 0.28 | 0.28 | 0.06 | 89 | 1018.0 |
| 20260502062114 | 59 | 191 | 0.0 | 2.0 | 0.28 | 0.28 | 0.06 | 88 | 1018.0 |
| 20260502061624 | 59 | 191 | 1.0 | 3.0 | 0.24 | 0.24 | 0.05 | 87 | 1018.2 |
| 20260502061107 | 60 | 191 | 1.0 | 3.0 | 0.20 | 0.20 | 0.04 | 87 | 1018.3 |
| 20260502060617 | 60 | 191 | 1.0 | 4.0 | 0.20 | 0.20 | 0.04 | 86 | 1018.3 |
| 20260502060108 | 60 | 196 | 2.0 | 10.0 | 0.12 | 0.12 | 0.02 | 86 | 1018.4 |
| 20260502055616 | 60 | 141 | 3.0 | 10.0 | 0.04 | 0.04 | 0.01 | 85 | 1018.5 |
| 20260502055104 | 60 | 178 | 5.0 | 6.0 | 0.04 | 0.04 | 0.01 | 84 | 1018.5 |
| 20260502054608 | 60 | 173 | 3.0 | 6.0 | 0.00 | 0.00 | 0.00 | 84 | 1018.4 |
| 20260502054111 | 60 | 175 | 2.0 | 6.0 | 0.00 | 0.00 | 0.00 | 84 | 1018.4 |
| 20260502053620 | 60 | 185 | 4.0 | 6.0 | 0.00 | 0.00 | 0.00 | 83 | 1018.4 |
| 20260502053107 | 60 | 200 | 3.0 | 7.0 | 0.00 | 0.00 | 0.00 | 83 | 1018.4 |
| 20260502052614 | 60 | 168 | 4.0 | 6.0 | 0.00 | 0.00 | 0.00 | 83 | 1018.4 |
| 20260502052118 | 60 | 190 | 3.0 | 5.0 | 0.00 | 0.00 | 0.00 | 84 | 1018.3 |
| 20260502051608 | 59 | 185 | 2.0 | 4.0 | 0.00 | 0.00 | 0.00 | 83 | 1018.2 |
| 20260502051134 | 59 | 204 | 2.0 | 4.0 | 0.00 | 0.00 | 0.00 | 83 | 1018.1 |
| 20260502050619 | 59 | 161 | 2.0 | 5.0 | 0.00 | 0.00 | 0.00 | 82 | 1018.1 |
| 20260502050141 | 59 | 189 | 2.0 | 5.0 | 0.00 | 0.00 | 0.00 | 82 | 1018.1 |
| 20260502045608 | 59 | 165 | 1.0 | 3.0 | 0.00 | 0.00 | 0.00 | 82 | 1018.1 |
| 20260502045141 | 59 | 163 | 1.0 | 4.0 | 0.00 | 0.00 | 0.00 | 81 | 1018.2 |
| 20260502044609 | 59 | 179 | 2.0 | 4.0 | 0.00 | 0.00 | 0.00 | 81 | 1018.2 |
| 20260502044110 | 59 | 209 | 1.0 | 3.0 | 0.00 | 0.00 | 0.00 | 80 | 1018.0 |
| 20260502043620 | 59 | 209 | 1.0 | 3.0 | 0.00 | 0.00 | 0.00 | 80 | 1018.0 |
| 20260502043108 | 58 | 209 | 1.0 | 4.0 | 0.00 | 0.00 | 0.00 | 79 | 1018.2 |
| 20260502042614 | 58 | 203 | 1.0 | 4.0 | 0.00 | 0.00 | 0.00 | 79 | 1018.3 |
| 20260502042120 | 58 | 205 | 2.0 | 4.0 | 0.00 | 0.00 | 0.00 | 78 | 1018.3 |
| 20260502041604 | 58 | 199 | 1.0 | 5.0 | 0.00 | 0.00 | 0.00 | 77 | 1018.4 |
| 20260502041109 | 58 | 182 | 2.0 | 6.0 | 0.00 | 0.00 | 0.00 | 77 | 1018.4 |
| 20260502040616 | 57 | 189 | 3.0 | 6.0 | 0.00 | 0.00 | 0.00 | 76 | 1018.4 |
| 20260502040113 | 57 | 185 | 2.0 | 6.0 | 0.00 | 0.00 | 0.00 | 76 | 1018.5 |
| 20260502035602 | 56 | 211 | 3.0 | 6.0 | 0.00 | 0.00 | 0.00 | 75 | 1018.5 |
| 20260502035107 | 55 | 214 | 2.0 | 3.0 | 0.00 | 0.00 | 0.00 | 74 | 1018.3 |
| 20260502034614 | 55 | 213 | 1.0 | 3.0 | 0.00 | 0.00 | 0.00 | 73 | 1018.3 |
| 20260502034102 | 55 | 213 | 1.0 | 3.0 | 0.00 | 0.00 | 0.00 | 72 | 1018.3 |
| 20260502033612 | 54 | 195 | 1.0 | 2.0 | 0.00 | 0.00 | 0.00 | 71 | 1018.3 |
| 20260502033121 | 54 | 195 | 0.0 | 2.0 | 0.00 | 0.00 | 0.00 | 71 | 1018.3 |
| 20260502032606 | 54 | 195 | 1.0 | 2.0 | 0.00 | 0.00 | 0.00 | 71 | 1018.2 |
| 20260502032108 | 55 | 195 | 0.0 | 1.0 | 0.00 | 0.00 | 0.00 | 70 | 1018.3 |
| 20260502031613 | 55 | 195 | 0.0 | 1.0 | 0.00 | 0.00 | 0.00 | 70 | 1018.3 |
| 20260502031102 | 55 | 195 | 0.0 | 1.0 | 0.00 | 0.00 | 0.00 | 69 | 1018.4 |
| 20260502030610 | 55 | 195 | 0.0 | 2.0 | 0.00 | 0.00 | 0.00 | 69 | 1018.4 |
| 20260502030109 | 55 | 195 | 0.0 | 2.0 | 0.00 | 0.00 | 0.00 | 68 | 1018.5 |
| 20260502025615 | 55 | 195 | 0.0 | 0.0 | 0.00 | 0.00 | 0.00 | 67 | 1018.5 |
| 20260502025103 | 56 | 195 | 0.0 | 0.0 | 0.00 | 0.00 | 0.00 | 67 | 1018.6 |
| 20260502024611 | 56 | 195 | 0.0 | 1.0 | 0.00 | 0.00 | 0.00 | 65 | 1018.5 |
| 20260502024102 | 56 | 195 | 0.0 | 4.0 | 0.00 | 0.00 | 0.00 | 64 | 1018.6 |
| 20260502023606 | 56 | 195 | 1.0 | 4.0 | 0.00 | 0.00 | 0.00 | 64 | 1018.6 |
| 20260502023133 | 56 | 213 | 1.0 | 4.0 | 0.00 | 0.00 | 0.00 | 63 | 1018.8 |
| 20260502022601 | 56 | 206 | 2.0 | 4.0 | 0.00 | 0.00 | 0.00 | 63 | 1018.7 |
| 20260502022111 | 56 | 175 | 1.0 | 2.0 | 0.00 | 0.00 | 0.00 | 63 | 1018.6 |
| 20260502021615 | 57 | 175 | 0.0 | 3.0 | 0.00 | 0.00 | 0.00 | 61 | 1018.5 |
| 20260502021133 | 57 | 175 | 1.0 | 3.0 | 0.00 | 0.00 | 0.00 | 60 | 1018.5 |
| 20260502020601 | 57 | 175 | 2.0 | 3.0 | 0.00 | 0.00 | 0.00 | 59 | 1018.6 |
| 20260502020103 | 57 | 175 | 1.0 | 5.0 | 0.00 | 0.00 | 0.00 | 59 | 1018.6 |
| 20260502015608 | 57 | 175 | 2.0 | 7.0 | 0.00 | 0.00 | 0.00 | 59 | 1018.7 |
| 20260502015108 | 57 | 123 | 3.0 | 7.0 | 0.00 | 0.00 | 0.00 | 60 | 1018.7 |
| 20260502014618 | 56 | 159 | 4.0 | 5.0 | 0.00 | 0.00 | 0.00 | 62 | 1018.8 |
| 20260502014126 | 55 | 173 | 3.0 | 4.0 | 0.00 | 0.00 | 0.00 | 65 | 1018.8 |
| 20260502013614 | 55 | 147 | 2.0 | 2.0 | 0.00 | 0.00 | 0.00 | 67 | 1018.8 |
| 20260502013117 | 55 | 147 | 0.0 | 1.0 | 0.00 | 0.00 | 0.00 | 67 | 1018.8 |
| 20260502012607 | 55 | 147 | 0.0 | 1.0 | 0.00 | 0.00 | 0.00 | 67 | 1018.8 |
| 20260502012115 | 55 | 147 | 0.0 | 0.0 | 0.00 | 0.00 | 0.00 | 66 | 1018.8 |
| 20260502011603 | 56 | 147 | 0.0 | 0.0 | 0.00 | 0.00 | 0.00 | 66 | 1018.8 |
| 20260502011110 | 56 | 147 | 0.0 | 0.0 | 0.00 | 0.00 | 0.00 | 65 | 1018.9 |
| 20260502010616 | 56 | 147 | 0.0 | 0.0 | 0.00 | 0.00 | 0.00 | 65 | 1018.9 |
| 20260502010135 | 56 | 147 | 0.0 | 0.0 | 0.00 | 0.00 | 0.00 | 65 | 1018.9 |
| 20260502005601 | 56 | 147 | 0.0 | 0.0 | 0.00 | 0.00 | 0.00 | 65 | 1019.0 |
| 20260502005110 | 56 | 147 | 0.0 | 0.0 | 0.00 | 0.00 | 0.00 | 65 | 1019.0 |
| 20260502004617 | 56 | 147 | 0.0 | 0.0 | 0.00 | 0.00 | 0.00 | 65 | 1019.0 |
| 20260502004104 | 56 | 147 | 0.0 | 0.0 | 0.00 | 0.00 | 0.00 | 65 | 1019.0 |
| 20260502003615 | 56 | 147 | 0.0 | 0.0 | 0.00 | 0.00 | 0.00 | 64 | 1019.1 |
| 20260502003102 | 57 | 147 | 0.0 | 0.0 | 0.00 | 0.00 | 0.00 | 63 | 1019.1 |
| 20260502002610 | 57 | 147 | 0.0 | 1.0 | 0.00 | 0.00 | 0.00 | 62 | 1019.2 |
| 20260502002139 | 57 | 147 | 0.0 | 1.0 | 0.00 | 0.00 | 0.00 | 62 | 1019.3 |
| 20260502001609 | 57 | 147 | 0.0 | 1.0 | 0.00 | 0.00 | 0.00 | 62 | 1019.2 |
| 20260502001111 | 57 | 147 | 0.0 | 1.0 | 0.00 | 0.00 | 0.00 | 61 | 1019.2 |
| 20260502000600 | 57 | 147 | 0.0 | 1.0 | 0.00 | 0.00 | 0.00 | 61 | 1019.3 |
| 20260501235608 | 57 | 146 | 1.0 | 1.0 | 0.00 | 0.00 | 0.00 | 60 | 1019.4 |
| 20260501235116 | 58 | 146 | 0.0 | 0.0 | 0.00 | 0.00 | 0.00 | 59 | 1019.4 |
| 20260501234624 | 58 | 146 | 0.0 | 0.0 | 0.00 | 0.00 | 0.00 | 59 | 1019.4 |
| 20260501234130 | 58 | 147 | 0.0 | 0.0 | 0.00 | 0.00 | 0.00 | 59 | 1019.4 |
| 20260501233639 | 58 | 146 | 0.0 | 0.0 | 0.00 | 0.00 | 0.00 | 59 | 1019.4 |
| 20260501233107 | 58 | 147 | 0.0 | 1.0 | 0.00 | 0.00 | 0.00 | 59 | 1019.5 |
| 20260501232616 | 58 | 146 | 0.0 | 1.0 | 0.00 | 0.00 | 0.00 | 59 | 1019.6 |
| 20260501232103 | 58 | 146 | 0.0 | 0.0 | 0.00 | 0.00 | 0.00 | 59 | 1019.6 |
| 20260501231608 | 58 | 146 | 0.0 | 1.0 | 0.00 | 0.00 | 0.00 | 59 | 1019.7 |
| 20260501231135 | 58 | 147 | 0.0 | 1.0 | 0.00 | 0.00 | 0.00 | 59 | 1019.6 |
| 20260501230622 | 58 | 146 | 0.0 | 1.0 | 0.00 | 0.00 | 0.00 | 60 | 1019.7 |
| 20260501230101 | 58 | 146 | 0.0 | 1.0 | 0.00 | 0.00 | 0.00 | 60 | 1019.7 |
| 20260501225605 | 58 | 146 | 0.0 | 1.0 | 0.00 | 0.00 | 0.00 | 60 | 1019.7 |
| 20260501225130 | 58 | 146 | 0.0 | 2.0 | 0.00 | 0.00 | 0.00 | 60 | 1019.8 |
| 20260501224617 | 59 | 146 | 0.0 | 2.0 | 0.00 | 0.00 | 0.00 | 61 | 1019.8 |
| 20260501224106 | 59 | 146 | 1.0 | 2.0 | 0.00 | 0.00 | 0.00 | 61 | 1019.8 |
| 20260501223616 | 59 | 146 | 0.0 | 3.0 | 0.00 | 0.00 | 0.00 | 61 | 1019.8 |
| 20260501223120 | 59 | 146 | 1.0 | 3.0 | 0.00 | 0.00 | 0.00 | 61 | 1019.9 |
| 20260501222629 | 59 | 146 | 0.0 | 1.0 | 0.00 | 0.00 | 0.00 | 61 | 1019.9 |
| 20260501222115 | 59 | 146 | 0.0 | 1.0 | 0.00 | 0.00 | 0.00 | 61 | 1019.9 |
| 20260501221603 | 59 | 146 | 0.0 | 1.0 | 0.00 | 0.00 | 0.00 | 61 | 1020.0 |
| 20260501221127 | 59 | 146 | 0.0 | 1.0 | 0.00 | 0.00 | 0.00 | 61 | 1020.1 |
| 20260501220635 | 59 | 146 | 0.0 | 1.0 | 0.00 | 0.00 | 0.00 | 62 | 1020.1 |
| 20260501220117 | 59 | 146 | 0.0 | 1.0 | 0.00 | 0.00 | 0.00 | 62 | 1020.1 |
| 20260501215623 | 60 | 146 | 0.0 | 1.0 | 0.00 | 0.00 | 0.00 | 62 | 1020.2 |
| 20260501215127 | 60 | 146 | 0.0 | 1.0 | 0.00 | 0.00 | 0.00 | 62 | 1020.1 |
| 20260501214613 | 60 | 146 | 0.0 | 0.0 | 0.00 | 0.00 | 0.00 | 62 | 1020.2 |
| 20260501214101 | 60 | 146 | 0.0 | 0.0 | 0.00 | 0.00 | 0.00 | 61 | 1020.2 |
| 20260501213610 | 60 | 146 | 0.0 | 0.0 | 0.00 | 0.00 | 0.00 | 61 | 1020.1 |
| 20260501213111 | 60 | 146 | 0.0 | 0.0 | 0.00 | 0.00 | 0.00 | 62 | 1020.1 |
| 20260501212621 | 60 | 146 | 0.0 | 0.0 | 0.00 | 0.00 | 0.00 | 61 | 1020.1 |
| 20260501212108 | 61 | 146 | 0.0 | 0.0 | 0.00 | 0.00 | 0.00 | 61 | 1020.2 |
| 20260501211618 | 61 | 146 | 0.0 | 0.0 | 0.00 | 0.00 | 0.00 | 60 | 1020.2 |
| 20260501211102 | 61 | 146 | 0.0 | 0.0 | 0.00 | 0.00 | 0.00 | 60 | 1020.3 |
| 20260501210625 | 61 | 146 | 0.0 | 0.0 | 0.00 | 0.00 | 0.00 | 58 | 1020.3 |
| 20260501210106 | 61 | 146 | 0.0 | 0.0 | 0.00 | 0.00 | 0.00 | 58 | 1020.3 |
| 20260501205634 | 62 | 147 | 0.0 | 0.0 | 0.00 | 0.00 | 0.00 | 59 | 1020.4 |
| 20260501205102 | 62 | 146 | 0.0 | 0.0 | 0.00 | 0.00 | 0.00 | 58 | 1020.3 |
| 20260501204606 | 62 | 146 | 0.0 | 1.0 | 0.00 | 0.00 | 0.00 | 58 | 1020.4 |
| 20260501204113 | 62 | 146 | 0.0 | 2.0 | 0.00 | 0.00 | 0.00 | 57 | 1020.4 |
| 20260501203603 | 62 | 146 | 1.0 | 2.0 | 0.00 | 0.00 | 0.00 | 57 | 1020.4 |
| 20260501203113 | 63 | 146 | 0.0 | 1.0 | 0.00 | 0.00 | 0.00 | 55 | 1020.4 |
| 20260501202601 | 63 | 146 | 0.0 | 0.0 | 0.00 | 0.00 | 0.00 | 54 | 1020.4 |
| 20260501202125 | 63 | 147 | 0.0 | 0.0 | 0.00 | 0.00 | 0.00 | 53 | 1020.4 |
| 20260501201633 | 64 | 146 | 0.0 | 0.0 | 0.00 | 0.00 | 0.00 | 53 | 1020.4 |
| 20260501201141 | 64 | 146 | 0.0 | 0.0 | 0.00 | 0.00 | 0.00 | 52 | 1020.4 |
| 20260501200608 | 64 | 146 | 0.0 | 0.0 | 0.00 | 0.00 | 0.00 | 51 | 1020.4 |
| 20260501200105 | 64 | 146 | 0.0 | 1.0 | 0.00 | 0.00 | 0.00 | 51 | 1020.4 |
| 20260501195634 | 65 | 146 | 0.0 | 2.0 | 0.00 | 0.00 | 0.00 | 50 | 1020.4 |
| 20260501195117 | 65 | 146 | 0.0 | 1.0 | 0.00 | 0.00 | 0.00 | 50 | 1020.4 |
| 20260501194604 | 65 | 146 | 0.0 | 1.0 | 0.00 | 0.00 | 0.00 | 49 | 1020.4 |